KENL/ENL METAR and TAF weather

Enter ICAO airport designator
Station Type Date Time Source
KENL METAR 2020/04/02 04:15 UTC NOAA

KENL 020415Z AUTO 12003KT 10SM CLR 08/04 A3008 RMK AO2 T00810041


Station Type Date Time Source
KENL Decoded METAR 2020/04/02 04:15 UTC NOAA

Centralia, Centralia Municipal Airport, IL, United States (KENL) 38-30-53N 089-05-32W
Apr 02, 2020 - 12:15 AM EDT / 2020.04.02 0415 UTC
Wind: from the ESE (120 degrees) at 3 MPH (3 KT):0
Visibility: 10 mile(s):0
Sky conditions: clear
Temperature: 46.6 F (8.1 C)
Dew Point: 39.4 F (4.1 C)
Relative Humidity: 75%
Pressure (altimeter): 30.08 in. Hg (1018 hPa)
ob: KENL 020415Z AUTO 12003KT 10SM CLR 08/04 A3008 RMK AO2 T00810041
cycle: 4

Station Type Date Time Source
KENL TAF UTC NOAA

Error!

Example: see airport list